sensor_id;sensor_type;location;lat;lon;timestamp;P1;durP1;ratioP1;P2;durP2;ratioP2
44516;SDS011;30223;17.182;-96.766;2022-09-13T00:01:41;6.32;;;2.15;;
44516;SDS011;30223;17.182;-96.766;2022-09-13T00:04:07;1.55;;;1.23;;
44516;SDS011;30223;17.182;-96.766;2022-09-13T00:06:34;7.00;;;2.17;;
44516;SDS011;30223;17.182;-96.766;2022-09-13T00:09:01;1.65;;;1.40;;
44516;SDS011;30223;17.182;-96.766;2022-09-13T00:11:28;2.72;;;1.52;;
44516;SDS011;30223;17.182;-96.766;2022-09-13T00:13:56;3.05;;;1.90;;
44516;SDS011;30223;17.182;-96.766;2022-09-13T00:16:24;7.00;;;1.92;;
44516;SDS011;30223;17.182;-96.766;2022-09-13T00:18:52;6.88;;;1.80;;
44516;SDS011;30223;17.182;-96.766;2022-09-13T00:21:20;3.72;;;2.67;;
44516;SDS011;30223;17.182;-96.766;2022-09-13T00:23:49;17.50;;;8.38;;
44516;SDS011;30223;17.182;-96.766;2022-09-13T00:26:18;38.13;;;11.63;;
44516;SDS011;30223;17.182;-96.766;2022-09-13T00:28:50;19.80;;;9.00;;
44516;SDS011;30223;17.182;-96.766;2022-09-13T00:31:18;20.83;;;7.57;;
44516;SDS011;30223;17.182;-96.766;2022-09-13T00:33:45;12.65;;;8.20;;
44516;SDS011;30223;17.182;-96.766;2022-09-13T00:36:12;14.75;;;7.80;;
44516;SDS011;30223;17.182;-96.766;2022-09-13T00:38:40;15.52;;;8.43;;
44516;SDS011;30223;17.182;-96.766;2022-09-13T00:41:10;8.23;;;4.93;;
44516;SDS011;30223;17.182;-96.766;2022-09-13T00:43:45;7.13;;;2.67;;
44516;SDS011;30223;17.182;-96.766;2022-09-13T00:49:27;2.85;;;2.47;;
44516;SDS011;30223;17.182;-96.766;2022-09-13T00:52:02;3.38;;;2.72;;
44516;SDS011;30223;17.182;-96.766;2022-09-13T00:54:37;5.97;;;2.72;;
44516;SDS011;30223;17.182;-96.766;2022-09-13T00:57:26;6.22;;;3.13;;
44516;SDS011;30223;17.182;-96.766;2022-09-13T01:02:39;7.03;;;2.55;;
44516;SDS011;30223;17.182;-96.766;2022-09-13T01:05:19;4.00;;;1.83;;
44516;SDS011;30223;17.182;-96.766;2022-09-13T01:07:52;4.35;;;2.65;;
44516;SDS011;30223;17.182;-96.766;2022-09-13T01:10:20;2.75;;;2.22;;
44516;SDS011;30223;17.182;-96.766;2022-09-13T01:12:50;2.90;;;2.30;;
44516;SDS011;30223;17.182;-96.766;2022-09-13T01:15:20;5.45;;;2.75;;
44516;SDS011;30223;17.182;-96.766;2022-09-13T01:17:47;2.92;;;2.22;;
44516;SDS011;30223;17.182;-96.766;2022-09-13T01:20:16;3.67;;;2.13;;
44516;SDS011;30223;17.182;-96.766;2022-09-13T01:28:26;3.20;;;1.63;;
44516;SDS011;30223;17.182;-96.766;2022-09-13T01:31:33;5.50;;;2.22;;
44516;SDS011;30223;17.182;-96.766;2022-09-13T01:34:38;2.60;;;1.65;;
44516;SDS011;30223;17.182;-96.766;2022-09-13T01:54:02;4.65;;;2.42;;
44516;SDS011;30223;17.182;-96.766;2022-09-13T01:56:53;3.97;;;2.70;;
44516;SDS011;30223;17.182;-96.766;2022-09-13T01:59:28;3.75;;;2.30;;
44516;SDS011;30223;17.182;-96.766;2022-09-13T02:02:09;5.63;;;2.95;;
44516;SDS011;30223;17.182;-96.766;2022-09-13T02:04:45;4.65;;;2.85;;
44516;SDS011;30223;17.182;-96.766;2022-09-13T02:07:19;9.07;;;2.90;;
44516;SDS011;30223;17.182;-96.766;2022-09-13T02:09:56;5.43;;;2.45;;
44516;SDS011;30223;17.182;-96.766;2022-09-13T02:12:27;10.07;;;2.90;;
44516;SDS011;30223;17.182;-96.766;2022-09-13T02:15:20;6.53;;;2.67;;
44516;SDS011;30223;17.182;-96.766;2022-09-13T02:18:02;9.70;;;2.40;;
44516;SDS011;30223;17.182;-96.766;2022-09-13T02:20:46;7.28;;;2.40;;
44516;SDS011;30223;17.182;-96.766;2022-09-13T02:23:20;7.65;;;2.42;;
44516;SDS011;30223;17.182;-96.766;2022-09-13T02:25:55;4.80;;;2.92;;
44516;SDS011;30223;17.182;-96.766;2022-09-13T02:28:38;6.50;;;3.75;;
44516;SDS011;30223;17.182;-96.766;2022-09-13T02:31:09;6.13;;;2.58;;
44516;SDS011;30223;17.182;-96.766;2022-09-13T02:33:48;6.45;;;2.78;;
44516;SDS011;30223;17.182;-96.766;2022-09-13T02:36:25;7.10;;;2.72;;
44516;SDS011;30223;17.182;-96.766;2022-09-13T02:38:56;5.13;;;2.42;;
44516;SDS011;30223;17.182;-96.766;2022-09-13T02:44:35;4.28;;;2.58;;
44516;SDS011;30223;17.182;-96.766;2022-09-13T02:57:38;4.30;;;2.47;;
44516;SDS011;30223;17.182;-96.766;2022-09-13T03:00:06;5.32;;;2.60;;
44516;SDS011;30223;17.182;-96.766;2022-09-13T03:02:33;4.97;;;2.80;;
44516;SDS011;30223;17.182;-96.766;2022-09-13T03:05:02;4.05;;;3.13;;
44516;SDS011;30223;17.182;-96.766;2022-09-13T03:07:29;6.00;;;2.70;;
44516;SDS011;30223;17.182;-96.766;2022-09-13T03:10:00;4.50;;;2.47;;
44516;SDS011;30223;17.182;-96.766;2022-09-13T03:20:33;5.07;;;3.15;;
44516;SDS011;30223;17.182;-96.766;2022-09-13T03:28:16;4.18;;;2.63;;
44516;SDS011;30223;17.182;-96.766;2022-09-13T03:31:02;3.33;;;2.63;;
44516;SDS011;30223;17.182;-96.766;2022-09-13T03:39:07;4.63;;;2.72;;
44516;SDS011;30223;17.182;-96.766;2022-09-13T03:41:48;6.20;;;2.25;;
44516;SDS011;30223;17.182;-96.766;2022-09-13T03:44:20;8.50;;;3.70;;
44516;SDS011;30223;17.182;-96.766;2022-09-13T03:46:54;3.75;;;2.47;;
44516;SDS011;30223;17.182;-96.766;2022-09-13T03:49:23;4.80;;;2.35;;
44516;SDS011;30223;17.182;-96.766;2022-09-13T03:51:52;4.80;;;2.67;;
44516;SDS011;30223;17.182;-96.766;2022-09-13T03:54:23;4.43;;;2.38;;
44516;SDS011;30223;17.182;-96.766;2022-09-13T03:59:36;4.93;;;2.25;;
44516;SDS011;30223;17.182;-96.766;2022-09-13T04:02:04;2.72;;;2.13;;
44516;SDS011;30223;17.182;-96.766;2022-09-13T04:04:39;4.20;;;2.45;;
44516;SDS011;30223;17.182;-96.766;2022-09-13T04:07:08;3.72;;;2.55;;
44516;SDS011;30223;17.182;-96.766;2022-09-13T04:09:36;3.95;;;2.28;;
44516;SDS011;30223;17.182;-96.766;2022-09-13T04:12:02;4.32;;;2.58;;
44516;SDS011;30223;17.182;-96.766;2022-09-13T04:14:29;6.90;;;2.70;;
44516;SDS011;30223;17.182;-96.766;2022-09-13T04:16:57;3.50;;;2.28;;
44516;SDS011;30223;17.182;-96.766;2022-09-13T04:19:24;12.25;;;4.25;;
44516;SDS011;30223;17.182;-96.766;2022-09-13T04:21:52;2.40;;;1.90;;
44516;SDS011;30223;17.182;-96.766;2022-09-13T04:24:22;3.13;;;2.83;;
44516;SDS011;30223;17.182;-96.766;2022-09-13T04:26:51;4.80;;;1.48;;
44516;SDS011;30223;17.182;-96.766;2022-09-13T04:29:19;3.60;;;2.25;;
44516;SDS011;30223;17.182;-96.766;2022-09-13T04:31:47;3.80;;;2.90;;
44516;SDS011;30223;17.182;-96.766;2022-09-13T04:34:16;2.22;;;1.92;;
44516;SDS011;30223;17.182;-96.766;2022-09-13T04:36:47;5.60;;;2.67;;
44516;SDS011;30223;17.182;-96.766;2022-09-13T04:39:14;4.00;;;2.63;;
44516;SDS011;30223;17.182;-96.766;2022-09-13T04:41:41;6.18;;;2.60;;
44516;SDS011;30223;17.182;-96.766;2022-09-13T04:44:10;3.47;;;2.63;;
44516;SDS011;30223;17.182;-96.766;2022-09-13T04:46:37;5.35;;;2.50;;
44516;SDS011;30223;17.182;-96.766;2022-09-13T04:49:04;6.07;;;2.95;;
44516;SDS011;30223;17.182;-96.766;2022-09-13T04:51:31;3.25;;;2.45;;
44516;SDS011;30223;17.182;-96.766;2022-09-13T04:53:57;3.25;;;2.50;;
44516;SDS011;30223;17.182;-96.766;2022-09-13T04:56:24;3.30;;;2.22;;
44516;SDS011;30223;17.182;-96.766;2022-09-13T04:58:52;4.45;;;2.58;;
44516;SDS011;30223;17.182;-96.766;2022-09-13T05:01:20;2.30;;;2.10;;
44516;SDS011;30223;17.182;-96.766;2022-09-13T05:03:49;5.75;;;2.55;;
44516;SDS011;30223;17.182;-96.766;2022-09-13T05:06:19;3.30;;;1.77;;
44516;SDS011;30223;17.182;-96.766;2022-09-13T05:08:50;2.33;;;1.98;;
44516;SDS011;30223;17.182;-96.766;2022-09-13T05:11:20;3.83;;;2.30;;
44516;SDS011;30223;17.182;-96.766;2022-09-13T05:13:48;2.55;;;1.98;;
44516;SDS011;30223;17.182;-96.766;2022-09-13T05:16:22;3.10;;;2.17;;
44516;SDS011;30223;17.182;-96.766;2022-09-13T05:18:50;4.87;;;2.20;;
44516;SDS011;30223;17.182;-96.766;2022-09-13T05:21:18;2.67;;;2.00;;
44516;SDS011;30223;17.182;-96.766;2022-09-13T05:23:49;2.15;;;1.95;;
44516;SDS011;30223;17.182;-96.766;2022-09-13T05:26:18;2.63;;;1.75;;
44516;SDS011;30223;17.182;-96.766;2022-09-13T05:28:46;3.80;;;1.85;;
44516;SDS011;30223;17.182;-96.766;2022-09-13T05:31:19;3.03;;;1.80;;
44516;SDS011;30223;17.182;-96.766;2022-09-13T05:33:55;2.08;;;1.70;;
44516;SDS011;30223;17.182;-96.766;2022-09-13T05:36:23;2.08;;;1.83;;
44516;SDS011;30223;17.182;-96.766;2022-09-13T05:38:54;3.05;;;2.08;;
44516;SDS011;30223;17.182;-96.766;2022-09-13T05:41:21;3.28;;;1.98;;
44516;SDS011;30223;17.182;-96.766;2022-09-13T05:43:48;5.63;;;2.53;;
44516;SDS011;30223;17.182;-96.766;2022-09-13T05:46:16;3.35;;;2.10;;
44516;SDS011;30223;17.182;-96.766;2022-09-13T05:48:44;2.80;;;1.70;;
44516;SDS011;30223;17.182;-96.766;2022-09-13T05:51:12;4.65;;;2.42;;
44516;SDS011;30223;17.182;-96.766;2022-09-13T05:53:43;3.13;;;1.70;;
44516;SDS011;30223;17.182;-96.766;2022-09-13T05:56:12;2.58;;;1.75;;
44516;SDS011;30223;17.182;-96.766;2022-09-13T05:58:41;3.83;;;1.60;;
44516;SDS011;30223;17.182;-96.766;2022-09-13T06:01:10;5.07;;;2.08;;
44516;SDS011;30223;17.182;-96.766;2022-09-13T06:03:38;2.13;;;1.48;;
44516;SDS011;30223;17.182;-96.766;2022-09-13T06:06:04;2.05;;;1.65;;
44516;SDS011;30223;17.182;-96.766;2022-09-13T06:08:32;3.00;;;1.90;;
44516;SDS011;30223;17.182;-96.766;2022-09-13T06:11:01;2.93;;;1.70;;
44516;SDS011;30223;17.182;-96.766;2022-09-13T06:13:33;3.58;;;1.73;;
44516;SDS011;30223;17.182;-96.766;2022-09-13T06:16:01;2.42;;;1.88;;
44516;SDS011;30223;17.182;-96.766;2022-09-13T06:18:29;2.53;;;1.83;;
44516;SDS011;30223;17.182;-96.766;2022-09-13T06:20:57;3.05;;;2.05;;
44516;SDS011;30223;17.182;-96.766;2022-09-13T06:23:28;3.42;;;1.60;;
44516;SDS011;30223;17.182;-96.766;2022-09-13T06:26:14;1.90;;;1.65;;
44516;SDS011;30223;17.182;-96.766;2022-09-13T06:28:42;2.25;;;1.52;;
44516;SDS011;30223;17.182;-96.766;2022-09-13T06:31:13;2.05;;;1.60;;
44516;SDS011;30223;17.182;-96.766;2022-09-13T06:33:41;1.92;;;1.70;;
44516;SDS011;30223;17.182;-96.766;2022-09-13T06:36:10;2.47;;;1.50;;
44516;SDS011;30223;17.182;-96.766;2022-09-13T06:38:42;2.15;;;1.63;;
44516;SDS011;30223;17.182;-96.766;2022-09-13T06:41:13;3.15;;;2.05;;
44516;SDS011;30223;17.182;-96.766;2022-09-13T06:43:43;2.53;;;1.80;;
44516;SDS011;30223;17.182;-96.766;2022-09-13T06:46:11;2.95;;;1.95;;
44516;SDS011;30223;17.182;-96.766;2022-09-13T06:51:07;4.47;;;1.50;;
44516;SDS011;30223;17.182;-96.766;2022-09-13T06:53:37;3.22;;;1.30;;
44516;SDS011;30223;17.182;-96.766;2022-09-13T06:56:15;1.75;;;1.25;;
44516;SDS011;30223;17.182;-96.766;2022-09-13T06:58:47;2.95;;;1.73;;
44516;SDS011;30223;17.182;-96.766;2022-09-13T07:03:44;1.95;;;1.45;;
44516;SDS011;30223;17.182;-96.766;2022-09-13T07:06:15;2.63;;;1.88;;
44516;SDS011;30223;17.182;-96.766;2022-09-13T07:08:45;1.70;;;1.42;;
44516;SDS011;30223;17.182;-96.766;2022-09-13T07:11:14;1.52;;;1.42;;
44516;SDS011;30223;17.182;-96.766;2022-09-13T07:13:49;3.28;;;1.70;;
44516;SDS011;30223;17.182;-96.766;2022-09-13T07:16:17;2.50;;;1.50;;
44516;SDS011;30223;17.182;-96.766;2022-09-13T07:18:49;2.10;;;1.20;;
44516;SDS011;30223;17.182;-96.766;2022-09-13T07:21:17;2.20;;;1.40;;
44516;SDS011;30223;17.182;-96.766;2022-09-13T07:23:45;2.22;;;1.50;;
44516;SDS011;30223;17.182;-96.766;2022-09-13T07:26:11;1.95;;;1.50;;
44516;SDS011;30223;17.182;-96.766;2022-09-13T07:28:40;3.90;;;1.65;;
44516;SDS011;30223;17.182;-96.766;2022-09-13T07:31:12;2.85;;;1.60;;
44516;SDS011;30223;17.182;-96.766;2022-09-13T07:33:40;3.05;;;1.23;;
44516;SDS011;30223;17.182;-96.766;2022-09-13T07:36:08;4.53;;;1.30;;
44516;SDS011;30223;17.182;-96.766;2022-09-13T07:38:37;3.15;;;1.33;;
44516;SDS011;30223;17.182;-96.766;2022-09-13T07:41:11;4.03;;;1.42;;
44516;SDS011;30223;17.182;-96.766;2022-09-13T07:43:40;2.72;;;1.60;;
44516;SDS011;30223;17.182;-96.766;2022-09-13T07:46:08;2.13;;;1.38;;
44516;SDS011;30223;17.182;-96.766;2022-09-13T07:48:37;3.08;;;1.45;;
44516;SDS011;30223;17.182;-96.766;2022-09-13T07:51:23;1.48;;;1.20;;
44516;SDS011;30223;17.182;-96.766;2022-09-13T07:53:54;1.35;;;1.25;;
44516;SDS011;30223;17.182;-96.766;2022-09-13T07:58:50;1.45;;;1.00;;
44516;SDS011;30223;17.182;-96.766;2022-09-13T08:01:23;2.15;;;1.45;;
44516;SDS011;30223;17.182;-96.766;2022-09-13T08:03:54;2.40;;;1.27;;
44516;SDS011;30223;17.182;-96.766;2022-09-13T08:06:23;1.83;;;1.42;;
44516;SDS011;30223;17.182;-96.766;2022-09-13T08:08:51;2.13;;;1.83;;
44516;SDS011;30223;17.182;-96.766;2022-09-13T08:11:29;2.42;;;1.42;;
44516;SDS011;30223;17.182;-96.766;2022-09-13T08:14:00;2.90;;;1.75;;
44516;SDS011;30223;17.182;-96.766;2022-09-13T08:16:27;2.45;;;1.60;;
44516;SDS011;30223;17.182;-96.766;2022-09-13T08:18:56;1.30;;;1.20;;
44516;SDS011;30223;17.182;-96.766;2022-09-13T08:23:54;1.90;;;1.30;;
44516;SDS011;30223;17.182;-96.766;2022-09-13T08:26:24;2.60;;;2.22;;
44516;SDS011;30223;17.182;-96.766;2022-09-13T08:28:57;2.30;;;1.38;;
44516;SDS011;30223;17.182;-96.766;2022-09-13T08:31:28;1.75;;;1.10;;
44516;SDS011;30223;17.182;-96.766;2022-09-13T08:33:56;1.33;;;1.15;;
44516;SDS011;30223;17.182;-96.766;2022-09-13T08:36:23;1.30;;;1.00;;
44516;SDS011;30223;17.182;-96.766;2022-09-13T08:38:52;1.20;;;1.08;;
44516;SDS011;30223;17.182;-96.766;2022-09-13T08:49:34;1.55;;;1.10;;
44516;SDS011;30223;17.182;-96.766;2022-09-13T08:54:47;1.77;;;1.30;;
44516;SDS011;30223;17.182;-96.766;2022-09-13T08:57:34;3.55;;;2.67;;
44516;SDS011;30223;17.182;-96.766;2022-09-13T09:05:30;2.00;;;1.33;;
44516;SDS011;30223;17.182;-96.766;2022-09-13T09:08:10;2.25;;;1.20;;
44516;SDS011;30223;17.182;-96.766;2022-09-13T09:10:47;1.58;;;1.30;;
44516;SDS011;30223;17.182;-96.766;2022-09-13T09:13:34;1.85;;;1.25;;
44516;SDS011;30223;17.182;-96.766;2022-09-13T09:18:57;2.35;;;1.40;;
44516;SDS011;30223;17.182;-96.766;2022-09-13T09:21:30;1.35;;;1.25;;
44516;SDS011;30223;17.182;-96.766;2022-09-13T09:23:57;3.03;;;1.27;;
44516;SDS011;30223;17.182;-96.766;2022-09-13T09:26:29;1.75;;;1.40;;
44516;SDS011;30223;17.182;-96.766;2022-09-13T09:31:42;1.45;;;1.10;;
44516;SDS011;30223;17.182;-96.766;2022-09-13T09:37:19;2.13;;;1.27;;
44516;SDS011;30223;17.182;-96.766;2022-09-13T09:39:48;1.90;;;1.67;;
44516;SDS011;30223;17.182;-96.766;2022-09-13T09:42:17;1.65;;;1.13;;
44516;SDS011;30223;17.182;-96.766;2022-09-13T09:44:55;1.55;;;1.25;;
44516;SDS011;30223;17.182;-96.766;2022-09-13T09:50:09;1.05;;;0.95;;
44516;SDS011;30223;17.182;-96.766;2022-09-13T09:55:24;1.17;;;1.08;;
44516;SDS011;30223;17.182;-96.766;2022-09-13T09:57:54;2.13;;;1.10;;
44516;SDS011;30223;17.182;-96.766;2022-09-13T10:00:27;1.42;;;1.15;;
44516;SDS011;30223;17.182;-96.766;2022-09-13T10:02:57;1.77;;;1.10;;
44516;SDS011;30223;17.182;-96.766;2022-09-13T10:05:26;4.68;;;1.55;;
44516;SDS011;30223;17.182;-96.766;2022-09-13T10:08:06;1.95;;;1.40;;
44516;SDS011;30223;17.182;-96.766;2022-09-13T10:13:18;1.50;;;1.40;;
44516;SDS011;30223;17.182;-96.766;2022-09-13T10:15:53;1.55;;;1.40;;
44516;SDS011;30223;17.182;-96.766;2022-09-13T10:18:32;1.77;;;1.20;;
44516;SDS011;30223;17.182;-96.766;2022-09-13T10:23:46;1.17;;;0.98;;
44516;SDS011;30223;17.182;-96.766;2022-09-13T10:26:21;1.55;;;1.30;;
44516;SDS011;30223;17.182;-96.766;2022-09-13T10:28:58;1.65;;;0.90;;
44516;SDS011;30223;17.182;-96.766;2022-09-13T10:31:34;2.00;;;1.45;;
44516;SDS011;30223;17.182;-96.766;2022-09-13T10:34:04;1.98;;;1.30;;
44516;SDS011;30223;17.182;-96.766;2022-09-13T10:37:03;1.20;;;1.10;;
44516;SDS011;30223;17.182;-96.766;2022-09-13T10:39:54;1.55;;;1.05;;
44516;SDS011;30223;17.182;-96.766;2022-09-13T10:42:27;1.35;;;0.90;;
44516;SDS011;30223;17.182;-96.766;2022-09-13T10:44:56;1.60;;;1.25;;
44516;SDS011;30223;17.182;-96.766;2022-09-13T10:50:24;2.03;;;1.08;;
44516;SDS011;30223;17.182;-96.766;2022-09-13T10:52:51;1.52;;;1.08;;
44516;SDS011;30223;17.182;-96.766;2022-09-13T10:55:29;1.90;;;1.08;;
44516;SDS011;30223;17.182;-96.766;2022-09-13T11:00:30;1.13;;;1.00;;
44516;SDS011;30223;17.182;-96.766;2022-09-13T11:03:04;1.88;;;1.00;;
44516;SDS011;30223;17.182;-96.766;2022-09-13T11:11:04;1.02;;;0.90;;
44516;SDS011;30223;17.182;-96.766;2022-09-13T11:19:07;1.17;;;1.08;;
44516;SDS011;30223;17.182;-96.766;2022-09-13T11:24:53;1.10;;;1.00;;
44516;SDS011;30223;17.182;-96.766;2022-09-13T11:30:34;1.58;;;1.00;;
44516;SDS011;30223;17.182;-96.766;2022-09-13T11:36:01;1.25;;;1.15;;
44516;SDS011;30223;17.182;-96.766;2022-09-13T11:44:39;0.90;;;0.80;;
44516;SDS011;30223;17.182;-96.766;2022-09-13T11:47:19;1.45;;;1.00;;
44516;SDS011;30223;17.182;-96.766;2022-09-13T11:56:04;1.45;;;1.10;;
44516;SDS011;30223;17.182;-96.766;2022-09-13T11:58:52;1.33;;;0.80;;
44516;SDS011;30223;17.182;-96.766;2022-09-13T12:01:31;1.90;;;1.15;;
44516;SDS011;30223;17.182;-96.766;2022-09-13T12:04:46;1.75;;;1.08;;
44516;SDS011;30223;17.182;-96.766;2022-09-13T12:06:57;2.47;;;1.17;;
44516;SDS011;30223;17.182;-96.766;2022-09-13T12:09:34;1.65;;;0.98;;
44516;SDS011;30223;17.182;-96.766;2022-09-13T12:12:17;2.08;;;1.08;;
44516;SDS011;30223;17.182;-96.766;2022-09-13T12:17:37;1.23;;;1.13;;
44516;SDS011;30223;17.182;-96.766;2022-09-13T12:20:29;2.08;;;1.10;;
44516;SDS011;30223;17.182;-96.766;2022-09-13T12:23:00;1.42;;;1.25;;
44516;SDS011;30223;17.182;-96.766;2022-09-13T12:25:36;5.28;;;2.63;;
44516;SDS011;30223;17.182;-96.766;2022-09-13T12:31:24;1.98;;;1.40;;
44516;SDS011;30223;17.182;-96.766;2022-09-13T12:33:53;0.77;;;0.70;;
44516;SDS011;30223;17.182;-96.766;2022-09-13T12:56:02;1.05;;;0.80;;
44516;SDS011;30223;17.182;-96.766;2022-09-13T13:01:29;1.25;;;0.80;;
44516;SDS011;30223;17.182;-96.766;2022-09-13T13:04:07;1.52;;;1.25;;
44516;SDS011;30223;17.182;-96.766;2022-09-13T13:07:06;2.50;;;1.40;;
44516;SDS011;30223;17.182;-96.766;2022-09-13T13:09:44;2.10;;;1.27;;
44516;SDS011;30223;17.182;-96.766;2022-09-13T13:14:58;1.65;;;0.80;;
44516;SDS011;30223;17.182;-96.766;2022-09-13T13:17:42;1.67;;;1.07;;
44516;SDS011;30223;17.182;-96.766;2022-09-13T13:23:26;1.00;;;0.80;;
44516;SDS011;30223;17.182;-96.766;2022-09-13T13:34:24;4.15;;;1.67;;
44516;SDS011;30223;17.182;-96.766;2022-09-13T13:36:50;1.30;;;1.13;;
44516;SDS011;30223;17.182;-96.766;2022-09-13T13:41:53;2.38;;;1.23;;
44516;SDS011;30223;17.182;-96.766;2022-09-13T13:46:49;1.10;;;1.00;;
44516;SDS011;30223;17.182;-96.766;2022-09-13T13:54:56;0.98;;;0.80;;
44516;SDS011;30223;17.182;-96.766;2022-09-13T13:57:49;1.20;;;1.00;;
44516;SDS011;30223;17.182;-96.766;2022-09-13T14:00:30;3.45;;;1.25;;
44516;SDS011;30223;17.182;-96.766;2022-09-13T14:03:14;1.45;;;0.93;;
44516;SDS011;30223;17.182;-96.766;2022-09-13T14:06:09;1.20;;;0.98;;
44516;SDS011;30223;17.182;-96.766;2022-09-13T14:11:38;1.92;;;1.08;;
44516;SDS011;30223;17.182;-96.766;2022-09-13T14:20:19;2.22;;;1.50;;
44516;SDS011;30223;17.182;-96.766;2022-09-13T14:22:47;2.78;;;1.50;;
44516;SDS011;30223;17.182;-96.766;2022-09-13T14:27:51;1.63;;;1.20;;
44516;SDS011;30223;17.182;-96.766;2022-09-13T14:30:22;1.83;;;1.25;;
44516;SDS011;30223;17.182;-96.766;2022-09-13T14:33:02;1.65;;;1.40;;
44516;SDS011;30223;17.182;-96.766;2022-09-13T14:35:37;1.40;;;1.30;;
44516;SDS011;30223;17.182;-96.766;2022-09-13T14:38:12;1.55;;;1.45;;
44516;SDS011;30223;17.182;-96.766;2022-09-13T14:41:16;1.45;;;1.05;;
44516;SDS011;30223;17.182;-96.766;2022-09-13T14:43:46;2.10;;;1.50;;
44516;SDS011;30223;17.182;-96.766;2022-09-13T14:48:56;2.25;;;1.88;;
44516;SDS011;30223;17.182;-96.766;2022-09-13T14:51:36;2.58;;;1.23;;
44516;SDS011;30223;17.182;-96.766;2022-09-13T14:56:43;1.92;;;1.40;;
44516;SDS011;30223;17.182;-96.766;2022-09-13T14:59:17;2.28;;;1.48;;
44516;SDS011;30223;17.182;-96.766;2022-09-13T15:01:54;2.20;;;1.70;;
44516;SDS011;30223;17.182;-96.766;2022-09-13T15:04:22;2.53;;;1.60;;
44516;SDS011;30223;17.182;-96.766;2022-09-13T15:07:35;3.55;;;2.10;;
44516;SDS011;30223;17.182;-96.766;2022-09-13T15:26:07;2.95;;;1.45;;
44516;SDS011;30223;17.182;-96.766;2022-09-13T15:31:21;1.77;;;1.42;;
44516;SDS011;30223;17.182;-96.766;2022-09-13T15:36:40;1.98;;;1.65;;
44516;SDS011;30223;17.182;-96.766;2022-09-13T15:41:34;1.83;;;1.58;;
44516;SDS011;30223;17.182;-96.766;2022-09-13T15:44:03;1.80;;;1.60;;
44516;SDS011;30223;17.182;-96.766;2022-09-13T15:46:36;1.95;;;1.83;;
44516;SDS011;30223;17.182;-96.766;2022-09-13T15:49:16;1.75;;;1.27;;
44516;SDS011;30223;17.182;-96.766;2022-09-13T15:51:45;1.48;;;1.33;;
44516;SDS011;30223;17.182;-96.766;2022-09-13T15:54:14;2.55;;;1.55;;
44516;SDS011;30223;17.182;-96.766;2022-09-13T15:56:43;2.75;;;1.88;;
44516;SDS011;30223;17.182;-96.766;2022-09-13T15:59:14;1.92;;;1.73;;
44516;SDS011;30223;17.182;-96.766;2022-09-13T16:01:42;2.25;;;2.05;;
44516;SDS011;30223;17.182;-96.766;2022-09-13T16:04:10;2.20;;;2.00;;
44516;SDS011;30223;17.182;-96.766;2022-09-13T16:06:37;2.00;;;1.80;;
44516;SDS011;30223;17.182;-96.766;2022-09-13T16:09:15;3.65;;;1.33;;
44516;SDS011;30223;17.182;-96.766;2022-09-13T16:11:44;2.42;;;1.90;;
44516;SDS011;30223;17.182;-96.766;2022-09-13T16:14:12;2.67;;;1.63;;
44516;SDS011;30223;17.182;-96.766;2022-09-13T16:16:39;1.70;;;1.52;;
44516;SDS011;30223;17.182;-96.766;2022-09-13T16:19:05;2.35;;;2.15;;
44516;SDS011;30223;17.182;-96.766;2022-09-13T16:21:42;2.28;;;1.70;;
44516;SDS011;30223;17.182;-96.766;2022-09-13T16:24:09;2.47;;;2.08;;
44516;SDS011;30223;17.182;-96.766;2022-09-13T16:26:36;4.22;;;2.47;;
44516;SDS011;30223;17.182;-96.766;2022-09-13T16:29:03;2.55;;;2.03;;
44516;SDS011;30223;17.182;-96.766;2022-09-13T16:31:30;2.17;;;1.60;;
44516;SDS011;30223;17.182;-96.766;2022-09-13T16:33:56;4.55;;;1.58;;
44516;SDS011;30223;17.182;-96.766;2022-09-13T16:36:23;3.10;;;1.98;;
44516;SDS011;30223;17.182;-96.766;2022-09-13T16:38:55;2.17;;;1.77;;
44516;SDS011;30223;17.182;-96.766;2022-09-13T16:41:22;2.10;;;1.52;;
44516;SDS011;30223;17.182;-96.766;2022-09-13T16:43:49;4.50;;;1.90;;
44516;SDS011;30223;17.182;-96.766;2022-09-13T16:46:16;3.35;;;1.92;;
44516;SDS011;30223;17.182;-96.766;2022-09-13T16:48:42;3.33;;;1.25;;
44516;SDS011;30223;17.182;-96.766;2022-09-13T16:51:10;2.25;;;1.55;;
44516;SDS011;30223;17.182;-96.766;2022-09-13T16:53:39;2.38;;;1.50;;
44516;SDS011;30223;17.182;-96.766;2022-09-13T16:56:07;1.95;;;1.70;;
44516;SDS011;30223;17.182;-96.766;2022-09-13T16:58:36;2.20;;;1.73;;
44516;SDS011;30223;17.182;-96.766;2022-09-13T17:01:04;2.95;;;2.50;;
44516;SDS011;30223;17.182;-96.766;2022-09-13T17:03:32;2.33;;;1.83;;
44516;SDS011;30223;17.182;-96.766;2022-09-13T17:06:07;2.60;;;2.03;;
44516;SDS011;30223;17.182;-96.766;2022-09-13T17:08:36;2.30;;;1.63;;
44516;SDS011;30223;17.182;-96.766;2022-09-13T17:11:05;2.15;;;1.77;;
44516;SDS011;30223;17.182;-96.766;2022-09-13T17:16:00;3.30;;;1.33;;
44516;SDS011;30223;17.182;-96.766;2022-09-13T17:18:27;2.00;;;1.65;;
44516;SDS011;30223;17.182;-96.766;2022-09-13T17:20:54;2.15;;;1.48;;
44516;SDS011;30223;17.182;-96.766;2022-09-13T17:23:20;3.60;;;1.38;;
44516;SDS011;30223;17.182;-96.766;2022-09-13T17:25:47;2.65;;;1.95;;
44516;SDS011;30223;17.182;-96.766;2022-09-13T17:28:15;3.83;;;1.85;;
44516;SDS011;30223;17.182;-96.766;2022-09-13T17:30:42;2.00;;;1.60;;
44516;SDS011;30223;17.182;-96.766;2022-09-13T17:33:11;3.28;;;1.85;;
44516;SDS011;30223;17.182;-96.766;2022-09-13T17:35:38;1.67;;;1.50;;
44516;SDS011;30223;17.182;-96.766;2022-09-13T17:38:04;2.10;;;1.70;;
44516;SDS011;30223;17.182;-96.766;2022-09-13T17:40:31;1.73;;;1.48;;
44516;SDS011;30223;17.182;-96.766;2022-09-13T17:42:58;1.58;;;1.15;;
44516;SDS011;30223;17.182;-96.766;2022-09-13T17:45:26;1.98;;;1.50;;
44516;SDS011;30223;17.182;-96.766;2022-09-13T17:47:53;1.10;;;1.00;;
44516;SDS011;30223;17.182;-96.766;2022-09-13T17:50:23;2.15;;;1.52;;
44516;SDS011;30223;17.182;-96.766;2022-09-13T17:52:49;1.35;;;1.25;;
44516;SDS011;30223;17.182;-96.766;2022-09-13T17:55:17;2.17;;;1.30;;
44516;SDS011;30223;17.182;-96.766;2022-09-13T17:57:46;1.35;;;0.95;;
44516;SDS011;30223;17.182;-96.766;2022-09-13T18:00:14;1.23;;;1.13;;
44516;SDS011;30223;17.182;-96.766;2022-09-13T18:02:44;1.63;;;1.48;;
44516;SDS011;30223;17.182;-96.766;2022-09-13T18:05:10;1.10;;;1.00;;
44516;SDS011;30223;17.182;-96.766;2022-09-13T18:07:37;1.38;;;1.23;;
44516;SDS011;30223;17.182;-96.766;2022-09-13T18:10:04;1.80;;;1.30;;
44516;SDS011;30223;17.182;-96.766;2022-09-13T18:12:31;2.65;;;1.83;;
44516;SDS011;30223;17.182;-96.766;2022-09-13T18:14:57;2.85;;;1.42;;
44516;SDS011;30223;17.182;-96.766;2022-09-13T18:17:25;1.40;;;0.95;;
44516;SDS011;30223;17.182;-96.766;2022-09-13T18:19:51;1.38;;;1.15;;
44516;SDS011;30223;17.182;-96.766;2022-09-13T18:22:18;1.50;;;1.00;;
44516;SDS011;30223;17.182;-96.766;2022-09-13T18:24:44;1.58;;;1.15;;
44516;SDS011;30223;17.182;-96.766;2022-09-13T18:27:11;1.67;;;1.38;;
44516;SDS011;30223;17.182;-96.766;2022-09-13T18:29:38;1.65;;;1.35;;
44516;SDS011;30223;17.182;-96.766;2022-09-13T18:32:05;2.00;;;1.48;;
44516;SDS011;30223;17.182;-96.766;2022-09-13T18:34:31;2.05;;;1.48;;
44516;SDS011;30223;17.182;-96.766;2022-09-13T18:36:58;2.17;;;1.35;;
44516;SDS011;30223;17.182;-96.766;2022-09-13T18:39:25;2.03;;;1.45;;
44516;SDS011;30223;17.182;-96.766;2022-09-13T18:41:51;1.30;;;0.98;;
44516;SDS011;30223;17.182;-96.766;2022-09-13T18:44:18;1.60;;;1.50;;
44516;SDS011;30223;17.182;-96.766;2022-09-13T18:46:45;1.48;;;1.38;;
44516;SDS011;30223;17.182;-96.766;2022-09-13T18:49:11;1.40;;;1.15;;
44516;SDS011;30223;17.182;-96.766;2022-09-13T18:51:40;1.35;;;1.23;;